Time;durP1;ratioP1;P1;durP2;ratioP2;P2;SDS_P1;SDS_P2;PMS_P1;PMS_P2;Temp;Humidity;BMP_temperature;BMP_pressure;BME280_temperature;BME280_humidity;BME280_pressure;Samples;Min_cycle;Max_cycle;Signal;HPM_P1;HPM_P2
2023/07/15 00:00:14;;;;;;;11.95;8.05;;;;;;;23.79;100.00;-7982.69;5073187;28;20185;-62
2023/07/15 00:02:45;;;;;;;12.05;8.00;;;;;;;23.71;100.00;-8958.50;5073174;28;20195;-61
2023/07/15 00:05:21;;;;;;;13.73;7.63;;;;;;;23.65;100.00;-7656.22;5072903;28;20627;-62
2023/07/15 00:07:49;;;;;;;17.83;7.40;;;;;;;23.83;100.00;-9935.75;5072661;28;20202;-62
2023/07/15 00:10:17;;;;;;;12.25;6.75;;;;;;;23.94;100.00;-9611.50;5073062;28;20640;-62
2023/07/15 00:12:44;;;;;;;13.63;7.32;;;;;;;23.81;100.00;-9610.22;5072961;28;20185;-62
2023/07/15 00:15:13;;;;;;;7.15;6.50;;;;;;;23.94;100.00;-6355.16;5072905;28;20185;-61
2023/07/15 00:17:40;;;;;;;13.15;7.53;;;;;;;23.88;100.00;-5377.50;5072959;28;20282;-62
2023/07/15 00:20:10;;;;;;;10.85;6.80;;;;;;;23.77;100.00;-6028.72;5072664;28;20181;-62
2023/07/15 00:22:38;;;;;;;8.23;6.72;;;;;;;23.73;100.00;-5702.81;5072490;28;20624;-62
2023/07/15 00:25:06;;;;;;;8.77;6.45;;;;;;;23.58;100.00;-6353.59;5073063;28;20205;-61
2023/07/15 00:27:33;;;;;;;10.35;6.57;;;;;;;23.43;100.00;-7329.38;5072564;28;20558;-61
2023/07/15 00:30:00;;;;;;;6.40;6.10;;;;;;;23.47;100.00;-7655.03;5072557;28;20661;-61
2023/07/15 00:32:27;;;;;;;8.32;6.00;;;;;;;23.58;100.00;-6353.59;5072476;28;20181;-62
2023/07/15 00:34:54;;;;;;;12.57;6.95;;;;;;;23.67;100.00;-9934.25;5072702;28;20185;-63
2023/07/15 00:37:22;;;;;;;7.35;6.57;;;;;;;23.68;100.00;-9609.03;5072474;28;20207;-62
2023/07/15 00:39:50;;;;;;;14.23;7.65;;;;;;;23.68;100.00;-8632.84;5071999;28;20249;-63
2023/07/15 00:42:36;;;;;;;12.57;6.93;;;;;;;23.84;100.00;-8634.13;5072119;28;20189;-62
2023/07/15 00:45:03;;;;;;;10.32;6.70;;;;;;;23.87;100.00;-7983.25;5071749;28;20228;-62
2023/07/15 00:47:38;;;;;;;9.25;6.25;;;;;;;23.70;100.00;-5702.72;5072046;28;20192;-62
2023/07/15 00:50:06;;;;;;;10.93;7.15;;;;;;;23.73;100.00;-6354.25;5071949;28;20288;-63
2023/07/15 00:52:33;;;;;;;8.63;6.85;;;;;;;23.74;100.00;-5377.06;5071835;28;20188;-62
2023/07/15 00:55:02;;;;;;;12.18;6.20;;;;;;;23.62;100.00;-7656.00;5071775;28;20196;-62
2023/07/15 00:57:30;;;;;;;9.60;6.38;;;;;;;23.55;100.00;-7655.53;5071705;28;20192;-62
2023/07/15 00:59:58;;;;;;;7.47;6.15;;;;;;;23.52;100.00;-7329.88;5071311;28;20203;-62
2023/07/15 01:02:25;;;;;;;8.93;6.82;;;;;;;23.33;100.00;-6677.94;5072024;28;20207;-62
2023/07/15 01:04:53;;;;;;;10.68;6.35;;;;;;;23.45;100.00;-8630.97;5071575;28;20361;-62
2023/07/15 01:07:20;;;;;;;9.23;6.82;;;;;;;23.50;100.00;-10582.84;5071892;28;20635;-62
2023/07/15 01:09:48;;;;;;;7.53;6.72;;;;;;;23.59;100.00;-10583.88;5071714;28;20224;-61
2023/07/15 01:12:15;;;;;;;10.38;7.20;;;;;;;23.46;100.00;-10257.22;5071636;28;20188;-61
2023/07/15 01:14:44;;;;;;;7.25;6.43;;;;;;;23.42;100.00;-8630.75;5071534;28;20203;-61
2023/07/15 01:17:10;;;;;;;9.55;7.70;;;;;;;23.45;100.00;-9281.56;5071639;28;20184;-61
2023/07/15 01:19:37;;;;;;;16.25;10.05;;;;;;;23.54;100.00;-10583.25;5071512;28;20185;-62
2023/07/15 01:22:08;;;;;;;10.10;7.90;;;;;;;23.37;100.00;-10256.25;5071847;28;20185;-62
2023/07/15 01:24:36;;;;;;;12.32;8.68;;;;;;;23.12;100.00;-7327.50;5071506;28;20189;-62
2023/07/15 01:27:09;;;;;;;13.07;8.70;;;;;;;23.39;100.00;-5376.06;5071475;28;20204;-62
2023/07/15 01:29:35;;;;;;;16.52;10.13;;;;;;;23.18;100.00;-6677.22;5071807;28;20654;-62
2023/07/15 01:32:02;;;;;;;13.60;9.23;;;;;;;23.40;100.00;-6678.28;5071316;28;20234;-61
2023/07/15 01:34:30;;;;;;;18.60;9.68;;;;;;;23.34;100.00;-6352.50;5071225;28;20193;-62
2023/07/15 01:36:58;;;;;;;10.00;9.05;;;;;;;23.30;100.00;-6677.78;5071687;28;20227;-61
2023/07/15 01:39:25;;;;;;;9.05;8.05;;;;;;;23.28;100.00;-6677.69;5071331;28;20195;-62
2023/07/15 01:41:55;;;;;;;16.33;8.90;;;;;;;23.30;100.00;-7003.19;5071394;28;20227;-62
2023/07/15 01:44:23;;;;;;;12.65;8.07;;;;;;;23.33;100.00;-6352.47;5071695;28;20566;-62
2023/07/15 01:46:50;;;;;;;7.68;7.15;;;;;;;23.27;100.00;-4724.56;5070942;28;20262;-62
2023/07/15 01:49:17;;;;;;;14.40;7.13;;;;;;;23.17;100.00;-4724.41;5071160;28;20194;-61
2023/07/15 01:51:44;;;;;;;10.88;7.00;;;;;;;23.17;100.00;-4398.84;5071476;28;20185;-61
2023/07/15 01:54:10;;;;;;;12.45;6.90;;;;;;;23.14;100.00;-4724.34;5071449;28;20195;-61
2023/07/15 01:56:41;;;;;;;9.65;6.43;;;;;;;23.16;100.00;-4724.38;5071435;28;20547;-62
2023/07/15 01:59:10;;;;;;;7.25;5.97;;;;;;;23.16;100.00;-5049.94;5071141;28;20196;-61
2023/07/15 02:01:37;;;;;;;11.50;5.72;;;;;;;23.16;100.00;-4398.81;5071326;28;20658;-61
2023/07/15 02:04:04;;;;;;;11.40;6.22;;;;;;;23.12;100.00;-4724.31;5071032;28;20180;-62
2023/07/15 02:06:31;;;;;;;9.45;6.30;;;;;;;22.98;100.00;-5700.28;5070843;28;20309;-61
2023/07/15 02:08:58;;;;;;;7.70;6.35;;;;;;;23.04;100.00;-6025.88;5071331;28;20211;-62
2023/07/15 02:11:25;;;;;;;15.23;7.38;;;;;;;23.00;100.00;-5049.53;5070939;28;20189;-63
2023/07/15 02:13:52;;;;;;;8.77;6.45;;;;;;;23.12;100.00;-4724.31;5075506;28;20242;-61
2023/07/15 02:16:21;;;;;;;8.77;5.75;;;;;;;23.03;100.00;-4398.63;5074993;28;20280;-62
2023/07/15 02:18:48;;;;;;;11.90;6.53;;;;;;;23.11;100.00;-3747.56;5074816;28;20184;-61
2023/07/15 02:21:15;;;;;;;11.75;6.10;;;;;;;23.11;100.00;-3747.56;5074746;28;20185;-62
2023/07/15 02:23:42;;;;;;;8.88;6.07;;;;;;;23.12;100.00;-3096.25;5074682;28;20201;-61
2023/07/15 02:26:09;;;;;;;6.80;6.20;;;;;;;23.13;100.00;-3421.94;5073747;28;20575;-62
2023/07/15 02:28:37;;;;;;;6.88;6.25;;;;;;;23.13;100.00;-1793.22;5074644;28;20189;-61
2023/07/15 02:31:04;;;;;;;10.48;6.30;;;;;;;23.07;100.00;-2444.91;5074587;28;20185;-62
2023/07/15 02:33:32;;;;;;;11.10;6.40;;;;;;;22.87;100.00;-1793.94;5074535;28;20199;-62
2023/07/15 02:35:59;;;;;;;11.82;6.57;;;;;;;22.91;100.00;-2770.81;5074827;28;20627;-63
2023/07/15 02:38:26;;;;;;;8.73;5.82;;;;;;;22.83;100.00;-3747.47;5074517;28;20184;-61
2023/07/15 02:40:55;;;;;;;14.95;6.93;;;;;;;22.91;100.00;-4398.47;5074382;28;20304;-62
2023/07/15 02:43:21;;;;;;;9.27;6.47;;;;;;;22.83;100.00;-5699.75;5074722;28;20188;-60
2023/07/15 02:45:50;;;;;;;8.23;6.78;;;;;;;22.77;100.00;-6024.78;5074322;28;20236;-62
2023/07/15 02:48:19;;;;;;;7.53;6.25;;;;;;;22.95;100.00;-6676.06;5074499;28;20260;-62
2023/07/15 02:50:51;;;;;;;10.98;6.28;;;;;;;22.94;100.00;-6676.00;5074248;28;20547;-61
2023/07/15 02:53:18;;;;;;;14.35;6.57;;;;;;;23.01;100.00;-7001.59;5074384;28;20276;-62
2023/07/15 02:55:45;;;;;;;6.82;6.05;;;;;;;22.97;100.00;-5700.22;5073962;28;20185;-62
2023/07/15 02:58:13;;;;;;;8.35;6.35;;;;;;;22.87;100.00;-5699.88;5074060;28;20188;-61
2023/07/15 03:00:40;;;;;;;11.90;6.38;;;;;;;22.81;100.00;-5699.69;5074258;28;20200;-62
2023/07/15 03:03:09;;;;;;;6.72;6.18;;;;;;;22.78;100.00;-6350.03;5074082;28;20220;-61
2023/07/15 03:05:36;;;;;;;9.25;6.93;;;;;;;22.65;100.00;-6674.56;5074200;28;20208;-62
2023/07/15 03:08:05;;;;;;;6.97;6.28;;;;;;;22.69;100.00;-6674.75;5073891;28;20185;-61
2023/07/15 03:10:32;;;;;;;10.27;6.70;;;;;;;22.68;100.00;-7324.88;5073901;28;20181;-61
2023/07/15 03:12:58;;;;;;;14.55;7.05;;;;;;;22.70;100.00;-8949.88;5074098;28;20177;-62
2023/07/15 03:15:25;;;;;;;18.42;7.60;;;;;;;22.79;100.00;-8300.69;5073883;28;20189;-62
2023/07/15 03:17:52;;;;;;;12.60;6.57;;;;;;;22.93;100.00;-7001.16;5073683;28;20196;-61
2023/07/15 03:20:20;;;;;;;9.30;6.50;;;;;;;22.95;100.00;-5374.81;5073959;28;20619;-62
2023/07/15 03:22:47;;;;;;;7.15;6.43;;;;;;;22.91;100.00;-164.84;5073379;28;20185;-62
2023/07/15 03:25:16;;;;;;;8.68;6.13;;;;;;;23.56;100.00;9639.66;5073827;28;20543;-61
2023/07/15 03:27:43;;;;;;;9.00;6.60;;;;;;;24.00;100.00;15875.69;5073859;28;20185;-62
2023/07/15 03:30:10;;;;;;;16.13;6.45;;;;;;;24.66;100.00;32355.34;5073568;28;20185;-62
2023/07/15 03:32:38;;;;;;;9.80;5.75;;;;;;;25.11;100.00;58572.50;5073479;28;20230;-62
2023/07/15 03:35:08;;;;;;;13.23;6.38;;;;;;;25.01;100.00;79256.66;5073749;28;20601;-62
2023/07/15 03:37:36;;;;;;;10.13;6.00;;;;;;;24.99;100.00;65888.97;5073628;28;20185;-62
2023/07/15 03:40:04;;;;;;;16.98;6.35;;;;;;;25.12;100.00;59571.63;5073650;28;20180;-62
2023/07/15 03:42:32;;;;;;;14.18;7.47;;;;;;;25.17;100.00;63241.13;5073615;28;20196;-64
2023/07/15 03:44:59;;;;;;;15.63;7.38;;;;;;;25.25;100.00;70591.44;5073359;28;20200;-62
2023/07/15 03:47:26;;;;;;;18.42;6.53;;;;;;;25.34;100.00;74948.50;5073381;28;20257;-62
2023/07/15 03:49:53;;;;;;;15.40;7.00;;;;;;;25.48;100.00;78649.13;5073449;28;20196;-63
2023/07/15 03:52:20;;;;;;;14.13;6.80;;;;;;;25.63;100.00;100179.13;5073379;28;20185;-62
2023/07/15 03:54:47;;;;;;;29.05;8.70;;;;;;;25.82;100.00;121183.81;5073468;28;20193;-62
2023/07/15 03:57:14;;;;;;;10.27;5.85;;;;;;;26.04;100.00;152588.34;5072898;28;20242;-64
2023/07/15 03:59:42;;;;;;;7.38;6.43;;;;;;;26.02;100.00;152583.22;5072931;28;20191;-62
2023/07/15 04:02:09;;;;;;;7.55;6.60;;;;;;;25.86;100.00;152544.88;5072974;28;20180;-62
2023/07/15 04:04:35;;;;;;;15.05;7.45;;;;;;;26.21;100.00;152631.84;5072781;28;20184;-62
2023/07/15 04:07:02;;;;;;;19.83;7.93;;;;;;;26.47;100.00;152698.34;5072615;28;20212;-62
2023/07/15 04:09:29;;;;;;;16.10;7.75;;;;;;;26.57;100.00;152723.91;5072995;28;20646;-62
2023/07/15 04:11:56;;;;;;;14.02;8.32;;;;;;;26.49;100.00;152702.16;5072960;28;20260;-63
2023/07/15 04:14:23;;;;;;;10.88;8.23;;;;;;;26.46;100.00;152695.78;5072926;28;20622;-62
2023/07/15 04:16:51;;;;;;;13.52;7.85;;;;;;;26.45;100.00;152693.22;5073025;28;20192;-62
2023/07/15 04:19:18;;;;;;;14.00;7.55;;;;;;;26.55;100.00;152718.81;5072633;28;20195;-63
2023/07/15 04:21:45;;;;;;;8.80;7.43;;;;;;;26.73;100.00;152764.81;5072785;28;20590;-65
2023/07/15 04:24:12;;;;;;;9.02;7.97;;;;;;;26.91;100.00;152809.63;5072683;28;20196;-62
2023/07/15 04:26:39;;;;;;;10.98;8.32;;;;;;;27.01;100.00;152833.94;5072674;28;20299;-63
2023/07/15 04:29:07;;;;;;;11.98;8.85;;;;;;;27.08;100.00;152851.84;5072222;28;20307;-63
2023/07/15 04:31:35;;;;;;;12.82;8.13;;;;;;;27.19;100.00;152880.00;5072546;28;20261;-62
2023/07/15 04:34:03;;;;;;;13.82;8.73;;;;;;;27.34;100.00;152917.06;5072350;28;20192;-63
2023/07/15 04:36:31;;;;;;;13.88;8.23;;;;;;;27.43;100.00;152941.41;5072543;28;20180;-62
2023/07/15 04:38:58;;;;;;;12.57;7.93;;;;;;;27.44;100.00;152943.97;5072148;28;20185;-62
2023/07/15 04:41:25;;;;;;;11.68;7.53;;;;;;;27.54;100.00;152969.56;5072596;28;20192;-63
2023/07/15 04:43:51;;;;;;;14.50;7.85;;;;;;;27.55;100.00;152972.16;5072219;28;20296;-61
2023/07/15 04:46:18;;;;;;;12.75;8.02;;;;;;;27.79;100.00;153031.03;5071683;28;20228;-63
2023/07/15 04:48:45;;;;;;;20.10;7.07;;;;;;;27.95;100.00;153073.28;5072266;28;20180;-63
2023/07/15 04:51:13;;;;;;;8.77;7.18;;;;;;;28.08;100.00;153106.53;5071096;28;20275;-62
2023/07/15 04:53:43;;;;;;;9.27;7.00;;;;;;;28.24;100.00;153144.97;5071874;28;20188;-62
2023/07/15 04:56:10;;;;;;;10.88;7.43;;;;;;;28.37;100.00;153179.56;5071871;28;20209;-63
2023/07/15 04:58:37;;;;;;;13.93;7.07;;;;;;;28.55;100.00;153225.66;5071825;28;20192;-63
2023/07/15 05:01:04;;;;;;;17.98;8.13;;;;;;;28.71;100.00;153265.38;5072171;28;20627;-62
2023/07/15 05:03:31;;;;;;;14.35;7.28;;;;;;;28.80;100.00;153287.16;5072056;28;20185;-57
2023/07/15 05:05:59;;;;;;;20.02;7.45;;;;;;;28.60;100.00;153238.41;5071852;28;20319;-57
2023/07/15 05:08:27;;;;;;;11.43;7.15;;;;;;;28.95;100.00;153326.81;5071528;28;20234;-57
2023/07/15 05:10:54;;;;;;;13.38;7.85;;;;;;;29.25;100.00;153401.09;5071716;28;20192;-57
2023/07/15 05:13:21;;;;;;;14.35;7.32;;;;;;;29.17;100.00;153380.63;5071826;28;20271;-57
2023/07/15 05:15:48;;;;;;;11.95;7.45;;;;;;;29.52;100.00;153470.34;5071396;28;20184;-58
2023/07/15 05:18:15;;;;;;;10.73;7.07;;;;;;;29.68;100.00;153510.06;5071719;28;20673;-57
2023/07/15 05:20:42;;;;;;;12.23;6.72;;;;;;;29.70;100.00;153516.50;5071499;28;20222;-57
2023/07/15 05:23:09;;;;;;;9.50;7.35;;;;;;;29.96;100.00;153580.59;5071646;28;20184;-57
2023/07/15 05:25:38;;;;;;;22.05;7.68;;;;;;;29.98;100.00;153587.00;5071430;28;20188;-57
2023/07/15 05:28:05;;;;;;;13.68;6.65;;;;;;;30.03;100.00;153599.81;5071539;28;20594;-57
2023/07/15 05:30:32;;;;;;;6.13;5.72;;;;;;;30.14;100.00;153628.00;5071437;28;20276;-57
2023/07/15 05:32:59;;;;;;;20.88;6.38;;;;;;;30.39;100.00;153692.06;5071243;28;20196;-57
2023/07/15 05:35:26;;;;;;;15.00;6.05;;;;;;;30.25;100.00;153654.94;5071438;28;20616;-57
2023/07/15 05:37:52;;;;;;;15.68;6.15;;;;;;;30.56;100.00;153733.13;5071865;28;20216;-57
2023/07/15 05:40:19;;;;;;;11.35;6.25;;;;;;;30.75;100.00;153783.16;5071168;28;20189;-56
2023/07/15 05:42:47;;;;;;;9.18;6.22;;;;;;;30.47;100.00;153710.09;5071461;28;20273;-57
2023/07/15 05:45:14;;;;;;;10.77;6.22;;;;;;;30.80;100.00;153795.97;5071437;28;20251;-58
2023/07/15 05:47:41;;;;;;;9.40;5.75;;;;;;;31.08;100.00;153866.53;5075371;28;20583;-58
2023/07/15 05:50:09;;;;;;;9.40;5.07;;;;;;;31.29;100.00;153920.38;5075356;28;20187;-57
2023/07/15 05:52:36;;;;;;;9.52;5.63;;;;;;;31.17;100.00;153889.63;5075532;28;20524;-57
2023/07/15 05:55:04;;;;;;;8.90;5.70;;;;;;;31.19;100.00;153894.72;5075106;28;20196;-57
2023/07/15 05:57:31;;;;;;;6.30;5.07;;;;;;;31.57;100.00;153989.72;5075474;28;20189;-57
2023/07/15 06:00:00;;;;;;;5.25;4.45;;;;;;;31.64;100.00;154007.66;5075560;28;20670;-57
2023/07/15 06:02:27;;;;;;;6.90;5.22;;;;;;;31.77;100.00;154041.00;5075124;28;20269;-58
2023/07/15 06:04:54;;;;;;;5.72;4.38;;;;;;;31.73;100.00;154030.75;5074912;28;20216;-58
2023/07/15 06:07:21;;;;;;;7.70;4.47;;;;;;;31.67;100.00;154016.63;5075066;28;20211;-58
2023/07/15 06:09:51;;;;;;;6.15;4.40;;;;;;;31.68;100.00;154017.91;5075285;28;20266;-58
2023/07/15 06:12:18;;;;;;;7.03;4.63;;;;;;;31.65;100.00;154010.22;5075606;28;20626;-57
2023/07/15 06:14:45;;;;;;;8.32;5.53;;;;;;;31.68;100.00;154019.19;5075053;28;20682;-57
2023/07/15 06:17:14;;;;;;;5.60;4.63;;;;;;;31.57;100.00;153989.72;5075086;28;20290;-57
2023/07/15 06:19:40;;;;;;;2.80;2.70;;;;;;;32.03;100.00;154106.44;5074804;28;20200;-62
2023/07/15 06:22:07;;;;;;;2.42;2.33;;;;;;;32.18;97.21;154144.97;5075004;28;20205;-58
2023/07/15 06:24:34;;;;;;;6.50;2.58;;;;;;;32.24;97.21;154159.09;5074962;28;20555;-57
2023/07/15 06:27:01;;;;;;;3.10;2.55;;;;;;;32.44;98.42;154210.41;5074744;28;20211;-56
2023/07/15 06:29:28;;;;;;;2.58;2.38;;;;;;;32.85;90.76;154315.69;5074429;28;20189;-58
2023/07/15 06:31:55;;;;;;;3.35;2.20;;;;;;;32.98;86.62;154347.78;5075346;28;20212;-59
2023/07/15 06:34:24;;;;;;;2.38;2.28;;;;;;;32.55;90.07;154239.91;5075050;28;20567;-57
2023/07/15 06:36:51;;;;;;;2.50;2.35;;;;;;;32.57;91.52;154243.78;5074620;28;20208;-58
2023/07/15 06:39:18;;;;;;;3.10;2.67;;;;;;;32.92;91.18;154332.41;5074612;28;20688;-56
2023/07/15 06:41:45;;;;;;;3.13;2.60;;;;;;;33.02;86.20;154359.34;5074580;28;20654;-56
2023/07/15 06:44:11;;;;;;;13.00;2.47;;;;;;;32.26;90.53;154165.47;5074652;28;20607;-57
2023/07/15 06:46:38;;;;;;;3.25;2.60;;;;;;;32.40;93.89;154201.44;5073947;28;20232;-56
2023/07/15 06:49:05;;;;;;;2.78;2.58;;;;;;;32.62;93.88;154256.66;5074199;28;20193;-57
2023/07/15 06:51:33;;;;;;;13.52;3.30;;;;;;;33.15;87.92;154391.47;5074405;28;20674;-58
2023/07/15 06:54:01;;;;;;;18.73;3.33;;;;;;;33.48;84.54;154474.97;5074328;28;20623;-57
2023/07/15 06:56:28;;;;;;;5.38;3.17;;;;;;;33.39;86.43;154451.84;5074055;28;20661;-57
2023/07/15 06:58:55;;;;;;;9.20;3.35;;;;;;;33.32;83.76;154433.84;5073943;28;20192;-57
2023/07/15 07:01:22;;;;;;;3.92;2.70;;;;;;;33.13;84.75;154385.03;5074227;28;20208;-57
2023/07/15 07:03:49;;;;;;;2.75;2.65;;;;;;;32.39;91.42;154198.84;5073995;28;20611;-57
2023/07/15 07:06:16;;;;;;;2.78;2.67;;;;;;;31.86;94.50;154064.13;5073757;28;20189;-57
2023/07/15 07:08:44;;;;;;;2.90;2.67;;;;;;;31.35;100.00;153933.22;5073822;28;20213;-57
2023/07/15 07:11:11;;;;;;;3.42;2.67;;;;;;;31.55;99.95;153985.84;5074219;28;20639;-57
2023/07/15 07:13:37;;;;;;;3.85;2.72;;;;;;;31.63;97.96;154005.06;5073928;28;20196;-57
2023/07/15 07:16:05;;;;;;;3.28;2.90;;;;;;;31.92;96.73;154078.19;5073680;28;20189;-57
2023/07/15 07:18:32;;;;;;;3.15;2.95;;;;;;;31.60;99.25;153997.41;5074026;28;20188;-57
2023/07/15 07:20:59;;;;;;;4.43;2.47;;;;;;;31.70;97.71;154023.03;5073468;28;20192;-57
2023/07/15 07:23:26;;;;;;;3.90;2.40;;;;;;;31.65;95.60;154011.53;5073576;28;20187;-58
2023/07/15 07:25:54;;;;;;;2.80;2.40;;;;;;;31.62;92.79;154002.50;5073736;28;20185;-58
2023/07/15 07:28:24;;;;;;;4.10;2.42;;;;;;;31.17;100.00;153889.63;5073356;28;20287;-58
2023/07/15 07:30:51;;;;;;;3.05;2.60;;;;;;;31.41;100.00;153948.59;5073336;28;20189;-57
2023/07/15 07:33:20;;;;;;;3.95;2.38;;;;;;;31.41;97.09;153948.59;5073339;28;20180;-57
2023/07/15 07:35:47;;;;;;;5.15;2.20;;;;;;;30.76;99.18;153785.72;5073646;28;21033;-58
2023/07/15 07:38:14;;;;;;;2.47;2.38;;;;;;;30.90;100.00;153820.31;5073437;28;20258;-58
2023/07/15 07:40:46;;;;;;;2.67;2.58;;;;;;;30.73;100.00;153776.72;5071982;28;20215;-57
2023/07/15 07:43:15;;;;;;;2.75;2.33;;;;;;;30.62;100.00;153749.81;5073466;28;20220;-57
2023/07/15 07:45:43;;;;;;;3.00;2.90;;;;;;;30.71;100.00;153772.91;5073094;28;20232;-57
2023/07/15 07:48:10;;;;;;;2.85;2.55;;;;;;;30.63;100.00;153751.09;5072968;28;20209;-56
2023/07/15 07:50:37;;;;;;;2.60;2.40;;;;;;;30.54;100.00;153728.03;5072919;28;20204;-58
2023/07/15 07:53:04;;;;;;;14.60;2.53;;;;;;;30.51;100.00;153721.59;5072964;28;20185;-58
2023/07/15 07:55:31;;;;;;;3.15;2.75;;;;;;;30.35;100.00;153681.81;5072820;28;20185;-57
2023/07/15 07:57:58;;;;;;;3.28;3.08;;;;;;;30.20;100.00;153643.38;5072905;28;20185;-58
2023/07/15 08:00:26;;;;;;;2.50;2.40;;;;;;;30.21;100.00;153644.66;5073127;28;20283;-59
2023/07/15 08:02:53;;;;;;;2.35;2.25;;;;;;;30.07;100.00;153610.06;5073242;28;20181;-57
2023/07/15 08:05:20;;;;;;;2.60;2.50;;;;;;;30.32;100.00;153672.84;5073065;28;20188;-58
2023/07/15 08:07:47;;;;;;;2.80;2.70;;;;;;;30.38;100.00;153689.50;5072553;28;20235;-58
2023/07/15 08:10:13;;;;;;;4.20;2.63;;;;;;;30.23;100.00;153651.06;5071933;28;20184;-57
2023/07/15 08:12:40;;;;;;;4.32;2.40;;;;;;;30.77;100.00;153786.97;5072874;28;20318;-57
2023/07/15 08:15:07;;;;;;;3.65;2.90;;;;;;;31.20;100.00;153897.28;5072457;28;20191;-57
2023/07/15 08:17:36;;;;;;;3.08;2.97;;;;;;;31.35;100.00;153934.50;5072828;28;20185;-57
2023/07/15 08:20:03;;;;;;;2.42;2.33;;;;;;;31.23;100.00;153904.97;5072444;28;20655;-57
2023/07/15 08:22:30;;;;;;;4.00;2.30;;;;;;;31.35;97.88;153933.22;5072576;28;20279;-57
2023/07/15 08:24:57;;;;;;;2.63;2.53;;;;;;;30.79;100.00;153792.13;5072575;28;20657;-57
2023/07/15 08:27:24;;;;;;;2.78;2.58;;;;;;;30.65;100.00;153756.22;5072157;28;20209;-58
2023/07/15 08:29:51;;;;;;;3.92;2.85;;;;;;;30.34;100.00;153678.00;5072576;28;20555;-57
2023/07/15 08:32:21;;;;;;;5.47;2.80;;;;;;;30.62;100.00;153749.81;5072481;28;20195;-56
2023/07/15 08:34:59;;;;;;;2.63;2.53;;;;;;;30.43;100.00;153701.03;5072436;28;20193;-58
2023/07/15 08:37:26;;;;;;;2.45;2.25;;;;;;;30.19;100.00;153640.81;5072467;28;20189;-56
2023/07/15 08:39:53;;;;;;;2.42;2.33;;;;;;;30.23;99.30;153649.78;5072297;28;20226;-57
2023/07/15 08:42:20;;;;;;;1.80;1.77;;;;;;;30.13;100.00;153625.41;5072000;28;20189;-57
2023/07/15 08:44:48;;;;;;;2.35;2.25;;;;;;;30.18;100.00;153638.25;5072045;28;20200;-58
2023/07/15 08:47:20;;;;;;;2.05;1.95;;;;;;;30.37;100.00;153686.97;5071975;28;20180;-58
2023/07/15 08:49:48;;;;;;;2.70;2.42;;;;;;;30.47;100.00;153710.09;5071994;28;20639;-58
2023/07/15 08:52:18;;;;;;;3.70;2.55;;;;;;;30.69;92.66;153766.47;5072098;28;20631;-57
2023/07/15 08:54:45;;;;;;;2.28;2.17;;;;;;;30.83;98.30;153802.38;5071891;28;20192;-58
2023/07/15 08:57:12;;;;;;;2.63;2.38;;;;;;;30.40;98.68;153694.66;5071875;28;20193;-58
2023/07/15 08:59:39;;;;;;;2.17;2.08;;;;;;;30.58;97.32;153738.28;5072113;28;20611;-58
2023/07/15 09:02:07;;;;;;;2.97;2.15;;;;;;;30.33;96.64;153676.72;5071567;28;20192;-57
2023/07/15 09:04:33;;;;;;;3.72;2.38;;;;;;;30.41;98.37;153695.94;5071928;28;20255;-58
2023/07/15 09:07:01;;;;;;;2.35;2.05;;;;;;;30.33;94.27;153675.44;5071719;28;20187;-57
2023/07/15 09:09:34;;;;;;;2.38;2.28;;;;;;;30.32;100.00;153672.84;5070286;28;20181;-58
2023/07/15 09:12:01;;;;;;;3.80;2.78;;;;;;;30.46;100.00;153708.81;5071443;28;20655;-57
2023/07/15 09:14:28;;;;;;;2.70;2.50;;;;;;;30.21;100.00;153644.66;5071389;28;20181;-57
2023/07/15 09:16:58;;;;;;;2.30;2.20;;;;;;;30.19;100.00;153640.81;5071805;28;20177;-58
2023/07/15 09:19:27;;;;;;;2.70;2.58;;;;;;;30.15;100.00;153630.56;5071431;28;20185;-58
2023/07/15 09:21:55;;;;;;;4.35;2.20;;;;;;;30.02;100.00;153597.25;5071175;28;20230;-57
2023/07/15 09:24:23;;;;;;;2.47;2.28;;;;;;;30.09;100.00;153615.16;5071699;28;20276;-57
2023/07/15 09:26:53;;;;;;;2.40;2.20;;;;;;;30.21;100.00;153645.97;5071845;28;20580;-57
2023/07/15 09:29:21;;;;;;;2.30;2.30;;;;;;;29.98;100.00;153587.00;5071575;28;20670;-57
2023/07/15 09:31:48;;;;;;;9.07;2.53;;;;;;;29.82;100.00;153545.94;5071304;28;20180;-57
2023/07/15 09:34:15;;;;;;;4.55;2.50;;;;;;;29.87;100.00;153558.81;5071589;28;20188;-58
2023/07/15 09:36:42;;;;;;;3.38;2.60;;;;;;;30.07;100.00;153610.06;5071398;28;20185;-57
2023/07/15 09:39:12;;;;;;;2.70;2.33;;;;;;;30.31;100.00;153670.28;5071457;28;20188;-58
2023/07/15 09:41:39;;;;;;;2.65;2.55;;;;;;;30.93;100.00;153828.03;5071162;28;20195;-58
2023/07/15 09:44:08;;;;;;;2.55;2.40;;;;;;;31.09;100.00;153869.09;5071223;28;20216;-57
2023/07/15 09:46:35;;;;;;;2.30;2.20;;;;;;;31.18;98.91;153892.19;5071001;28;20710;-57
2023/07/15 09:49:02;;;;;;;2.70;2.60;;;;;;;31.15;99.89;153883.19;5071033;28;20208;-58
2023/07/15 09:51:30;;;;;;;2.75;2.65;;;;;;;31.38;100.00;153942.19;5071027;28;20195;-58
2023/07/15 09:53:58;;;;;;;5.18;2.42;;;;;;;31.22;99.01;153902.44;5071486;28;20262;-58
2023/07/15 09:56:31;;;;;;;2.72;2.60;;;;;;;30.85;100.00;153807.53;5071451;28;20187;-58
2023/07/15 09:59:03;;;;;;;2.40;2.30;;;;;;;31.05;100.00;153858.84;5071337;28;20704;-57
2023/07/15 10:01:36;;;;;;;2.70;2.50;;;;;;;30.61;100.00;153747.25;5071303;28;20650;-57
2023/07/15 10:04:11;;;;;;;2.47;2.38;;;;;;;30.69;100.00;153766.47;5071325;28;20193;-57
2023/07/15 10:06:38;;;;;;;2.58;2.40;;;;;;;30.73;100.00;153776.72;5071275;28;20658;-58
2023/07/15 10:09:06;;;;;;;4.40;2.50;;;;;;;30.73;100.00;153778.00;5071243;28;20590;-58
2023/07/15 10:11:34;;;;;;;2.40;2.30;;;;;;;30.90;100.00;153820.31;5071080;28;20188;-57
2023/07/15 10:14:01;;;;;;;2.65;2.55;;;;;;;30.39;100.00;153692.06;5071230;28;20184;-57
2023/07/15 10:16:28;;;;;;;2.90;2.70;;;;;;;30.27;100.00;153661.31;5070779;28;20191;-57
2023/07/15 10:18:56;;;;;;;2.45;2.25;;;;;;;30.13;100.00;153624.19;5071128;28;20177;-57
2023/07/15 10:21:23;;;;;;;2.83;2.58;;;;;;;30.24;100.00;153652.34;5071134;28;20185;-57
2023/07/15 10:24:02;;;;;;;2.35;2.25;;;;;;;30.24;100.00;153652.34;5071001;28;20259;-57
2023/07/15 10:26:32;;;;;;;2.80;2.60;;;;;;;30.12;100.00;153622.88;5070634;28;20185;-56
2023/07/15 10:28:59;;;;;;;2.40;2.30;;;;;;;29.97;100.00;153584.41;5071052;28;20655;-57
2023/07/15 10:31:26;;;;;;;2.40;2.30;;;;;;;30.34;100.00;153679.25;5070683;28;20188;-57
2023/07/15 10:33:56;;;;;;;2.90;2.35;;;;;;;30.75;100.00;153781.88;5072950;28;20189;-57
2023/07/15 10:36:40;;;;;;;2.30;2.20;;;;;;;30.68;93.07;153763.94;5074674;28;20185;-57
2023/07/15 10:39:15;;;;;;;2.55;2.45;;;;;;;30.51;100.00;153720.34;5074291;28;20188;-57
2023/07/15 10:41:44;;;;;;;2.20;2.03;;;;;;;30.48;85.51;153712.63;5074276;28;20185;-57
2023/07/15 10:44:21;;;;;;;2.70;2.40;;;;;;;30.02;100.00;153597.25;5074171;28;20199;-58
2023/07/15 10:46:51;;;;;;;2.53;2.42;;;;;;;29.93;100.00;153574.16;5074036;28;20358;-57
2023/07/15 10:49:21;;;;;;;2.60;2.50;;;;;;;30.31;100.00;153671.56;5074126;28;20201;-58
2023/07/15 10:51:50;;;;;;;2.75;2.30;;;;;;;30.27;100.00;153661.31;5074138;28;20234;-58
2023/07/15 10:54:20;;;;;;;2.30;2.22;;;;;;;29.18;100.00;153384.47;5074530;28;20195;-57
2023/07/15 10:56:47;;;;;;;2.85;2.65;;;;;;;29.30;100.00;153415.25;5074049;28;20246;-58
2023/07/15 10:59:14;;;;;;;2.47;2.30;;;;;;;29.18;100.00;153384.47;5074109;28;20177;-57
2023/07/15 11:01:42;;;;;;;2.50;2.40;;;;;;;29.01;100.00;153340.94;5074103;28;20200;-59
2023/07/15 11:04:09;;;;;;;2.83;2.72;;;;;;;29.06;100.00;153353.75;5074085;28;20275;-57
2023/07/15 11:06:38;;;;;;;2.63;2.42;;;;;;;28.82;100.00;153293.53;5074251;28;20531;-59
2023/07/15 11:09:15;;;;;;;2.65;2.45;;;;;;;28.64;100.00;153247.41;5073809;28;20224;-57
2023/07/15 11:11:42;;;;;;;2.72;2.63;;;;;;;28.59;100.00;153235.91;5074218;28;20639;-60
2023/07/15 11:14:23;;;;;;;2.72;2.53;;;;;;;28.88;100.00;153308.91;5073872;28;20185;-57
2023/07/15 11:16:51;;;;;;;2.40;2.30;;;;;;;28.68;100.00;153257.66;5073717;28;20288;-57
2023/07/15 11:19:18;;;;;;;2.85;2.65;;;;;;;28.77;100.00;153279.47;5073689;28;20207;-57
2023/07/15 11:21:46;;;;;;;2.80;2.70;;;;;;;28.86;100.00;153303.78;5073621;28;20192;-57